sensor_id;sensor_type;location;lat;lon;timestamp;temperature;humidity
72114;SHT31;59989;46.220;19.888;2022-09-09T00:05:24;19.63;94.70
72114;SHT31;59989;46.220;19.888;2022-09-09T00:08:57;19.56;94.54
72114;SHT31;59989;46.220;19.888;2022-09-09T00:12:08;19.49;94.83
72114;SHT31;59989;46.220;19.888;2022-09-09T00:15:18;19.42;94.97
72114;SHT31;59989;46.220;19.888;2022-09-09T00:19:07;19.39;94.98
72114;SHT31;59989;46.220;19.888;2022-09-09T00:22:22;19.37;95.06
72114;SHT31;59989;46.220;19.888;2022-09-09T00:25:40;19.36;94.96
72114;SHT31;59989;46.220;19.888;2022-09-09T00:29:16;19.39;94.95
72114;SHT31;59989;46.220;19.888;2022-09-09T00:32:24;19.39;94.76
72114;SHT31;59989;46.220;19.888;2022-09-09T00:35:33;19.36;94.55
72114;SHT31;59989;46.220;19.888;2022-09-09T00:38:40;19.39;94.96
72114;SHT31;59989;46.220;19.888;2022-09-09T00:46:21;19.36;95.11
72114;SHT31;59989;46.220;19.888;2022-09-09T01:02:25;19.27;95.76
72114;SHT31;59989;46.220;19.888;2022-09-09T01:05:38;19.24;95.83
72114;SHT31;59989;46.220;19.888;2022-09-09T01:09:04;19.16;95.74
72114;SHT31;59989;46.220;19.888;2022-09-09T01:12:24;19.23;95.74
72114;SHT31;59989;46.220;19.888;2022-09-09T01:15:31;19.26;95.37
72114;SHT31;59989;46.220;19.888;2022-09-09T01:18:38;19.32;95.15
72114;SHT31;59989;46.220;19.888;2022-09-09T01:21:51;19.34;95.00
72114;SHT31;59989;46.220;19.888;2022-09-09T01:25:21;19.33;95.14
72114;SHT31;59989;46.220;19.888;2022-09-09T01:28:43;19.26;95.70
72114;SHT31;59989;46.220;19.888;2022-09-09T01:31:57;19.19;95.85
72114;SHT31;59989;46.220;19.888;2022-09-09T01:35:01;19.19;96.11
72114;SHT31;59989;46.220;19.888;2022-09-09T01:38:04;19.16;96.16
72114;SHT31;59989;46.220;19.888;2022-09-09T01:41:08;19.12;96.33
72114;SHT31;59989;46.220;19.888;2022-09-09T01:44:25;19.15;96.29
72114;SHT31;59989;46.220;19.888;2022-09-09T01:47:29;19.12;96.31
72114;SHT31;59989;46.220;19.888;2022-09-09T01:50:44;19.09;96.47
72114;SHT31;59989;46.220;19.888;2022-09-09T01:53:47;19.06;96.40
72114;SHT31;59989;46.220;19.888;2022-09-09T02:00:09;19.08;96.35
72114;SHT31;59989;46.220;19.888;2022-09-09T02:03:34;19.08;96.11
72114;SHT31;59989;46.220;19.888;2022-09-09T02:06:49;19.12;96.32
72114;SHT31;59989;46.220;19.888;2022-09-09T02:10:16;19.03;96.13
72114;SHT31;59989;46.220;19.888;2022-09-09T02:13:29;19.09;96.18
72114;SHT31;59989;46.220;19.888;2022-09-09T02:16:40;19.11;96.39
72114;SHT31;59989;46.220;19.888;2022-09-09T02:19:49;19.03;96.45
72114;SHT31;59989;46.220;19.888;2022-09-09T02:23:00;18.96;96.53
72114;SHT31;59989;46.220;19.888;2022-09-09T02:26:05;18.95;96.49
72114;SHT31;59989;46.220;19.888;2022-09-09T02:29:16;19.08;96.51
72114;SHT31;59989;46.220;19.888;2022-09-09T02:32:22;19.03;96.18
72114;SHT31;59989;46.220;19.888;2022-09-09T02:35:27;19.03;95.89
72114;SHT31;59989;46.220;19.888;2022-09-09T02:38:33;18.99;95.97
72114;SHT31;59989;46.220;19.888;2022-09-09T02:41:43;18.99;95.97
72114;SHT31;59989;46.220;19.888;2022-09-09T02:44:46;19.01;96.14
72114;SHT31;59989;46.220;19.888;2022-09-09T02:48:18;18.98;96.19
72114;SHT31;59989;46.220;19.888;2022-09-09T02:54:38;18.89;96.05
72114;SHT31;59989;46.220;19.888;2022-09-09T02:57:45;18.85;95.99
72114;SHT31;59989;46.220;19.888;2022-09-09T03:00:51;18.87;96.13
72114;SHT31;59989;46.220;19.888;2022-09-09T03:03:55;18.85;96.22
72114;SHT31;59989;46.220;19.888;2022-09-09T03:06:59;18.84;96.23
72114;SHT31;59989;46.220;19.888;2022-09-09T03:10:02;18.81;96.44
72114;SHT31;59989;46.220;19.888;2022-09-09T03:13:05;18.78;96.46
72114;SHT31;59989;46.220;19.888;2022-09-09T03:16:12;18.76;96.52
72114;SHT31;59989;46.220;19.888;2022-09-09T03:19:19;18.76;96.46
72114;SHT31;59989;46.220;19.888;2022-09-09T03:22:22;18.75;96.63
72114;SHT31;59989;46.220;19.888;2022-09-09T03:25:25;18.75;96.59
72114;SHT31;59989;46.220;19.888;2022-09-09T03:28:28;18.74;96.67
72114;SHT31;59989;46.220;19.888;2022-09-09T03:31:35;18.72;96.68
72114;SHT31;59989;46.220;19.888;2022-09-09T03:34:39;18.68;96.68
72114;SHT31;59989;46.220;19.888;2022-09-09T03:37:45;18.61;96.54
72114;SHT31;59989;46.220;19.888;2022-09-09T03:40:53;18.57;96.49
72114;SHT31;59989;46.220;19.888;2022-09-09T03:44:00;18.54;96.33
72114;SHT31;59989;46.220;19.888;2022-09-09T03:47:06;18.51;96.29
72114;SHT31;59989;46.220;19.888;2022-09-09T03:50:09;18.51;96.17
72114;SHT31;59989;46.220;19.888;2022-09-09T03:53:18;18.50;96.20
72114;SHT31;59989;46.220;19.888;2022-09-09T03:56:21;18.44;96.22
72114;SHT31;59989;46.220;19.888;2022-09-09T03:59:24;18.48;96.42
72114;SHT31;59989;46.220;19.888;2022-09-09T04:02:27;18.45;96.47
72114;SHT31;59989;46.220;19.888;2022-09-09T04:05:30;18.40;96.41
72114;SHT31;59989;46.220;19.888;2022-09-09T04:08:33;18.38;96.23
72114;SHT31;59989;46.220;19.888;2022-09-09T04:11:36;18.38;95.94
72114;SHT31;59989;46.220;19.888;2022-09-09T04:14:39;18.34;95.94
72114;SHT31;59989;46.220;19.888;2022-09-09T04:17:43;18.33;95.96
72114;SHT31;59989;46.220;19.888;2022-09-09T04:20:50;18.33;96.11
72114;SHT31;59989;46.220;19.888;2022-09-09T04:23:56;18.29;96.17
72114;SHT31;59989;46.220;19.888;2022-09-09T04:26:59;18.27;96.22
72114;SHT31;59989;46.220;19.888;2022-09-09T04:30:02;18.26;95.99
72114;SHT31;59989;46.220;19.888;2022-09-09T04:33:08;18.27;95.81
72114;SHT31;59989;46.220;19.888;2022-09-09T04:36:12;18.23;95.82
72114;SHT31;59989;46.220;19.888;2022-09-09T04:39:16;18.24;95.62
72114;SHT31;59989;46.220;19.888;2022-09-09T04:42:18;18.23;95.37
72114;SHT31;59989;46.220;19.888;2022-09-09T04:45:22;18.24;95.59
72114;SHT31;59989;46.220;19.888;2022-09-09T04:48:25;18.24;95.43
72114;SHT31;59989;46.220;19.888;2022-09-09T04:51:28;18.20;95.39
72114;SHT31;59989;46.220;19.888;2022-09-09T04:54:30;18.20;95.09
72114;SHT31;59989;46.220;19.888;2022-09-09T04:57:34;18.20;94.87
72114;SHT31;59989;46.220;19.888;2022-09-09T05:00:37;18.18;94.51
72114;SHT31;59989;46.220;19.888;2022-09-09T05:03:42;18.26;95.11
72114;SHT31;59989;46.220;19.888;2022-09-09T05:06:50;18.26;94.73
72114;SHT31;59989;46.220;19.888;2022-09-09T05:09:53;18.29;94.59
72114;SHT31;59989;46.220;19.888;2022-09-09T05:12:56;18.34;94.89
72114;SHT31;59989;46.220;19.888;2022-09-09T05:16:01;18.34;94.46
72114;SHT31;59989;46.220;19.888;2022-09-09T05:19:04;18.38;94.70
72114;SHT31;59989;46.220;19.888;2022-09-09T05:22:20;18.40;94.40
72114;SHT31;59989;46.220;19.888;2022-09-09T05:25:24;18.45;94.13
72114;SHT31;59989;46.220;19.888;2022-09-09T05:28:30;18.54;94.02
72114;SHT31;59989;46.220;19.888;2022-09-09T05:31:32;18.61;93.81
72114;SHT31;59989;46.220;19.888;2022-09-09T05:34:43;18.69;93.47
72114;SHT31;59989;46.220;19.888;2022-09-09T05:37:45;18.78;93.44
72114;SHT31;59989;46.220;19.888;2022-09-09T05:40:48;18.82;92.89
72114;SHT31;59989;46.220;19.888;2022-09-09T05:43:52;18.95;92.73
72114;SHT31;59989;46.220;19.888;2022-09-09T05:46:55;19.02;92.65
72114;SHT31;59989;46.220;19.888;2022-09-09T05:49:58;19.02;92.27
72114;SHT31;59989;46.220;19.888;2022-09-09T05:53:00;19.03;91.52
72114;SHT31;59989;46.220;19.888;2022-09-09T05:56:15;19.09;91.74
72114;SHT31;59989;46.220;19.888;2022-09-09T05:59:18;19.16;91.34
72114;SHT31;59989;46.220;19.888;2022-09-09T06:02:20;19.24;91.15
72114;SHT31;59989;46.220;19.888;2022-09-09T06:05:24;19.30;91.39
72114;SHT31;59989;46.220;19.888;2022-09-09T06:08:29;19.46;91.86
72114;SHT31;59989;46.220;19.888;2022-09-09T06:11:33;19.45;91.17
72114;SHT31;59989;46.220;19.888;2022-09-09T06:14:36;19.42;90.52
72114;SHT31;59989;46.220;19.888;2022-09-09T06:17:39;19.47;91.12
72114;SHT31;59989;46.220;19.888;2022-09-09T06:20:41;19.47;90.69
72114;SHT31;59989;46.220;19.888;2022-09-09T06:23:44;19.40;90.04
72114;SHT31;59989;46.220;19.888;2022-09-09T06:26:47;19.37;90.08
72114;SHT31;59989;46.220;19.888;2022-09-09T06:30:02;19.39;90.41
72114;SHT31;59989;46.220;19.888;2022-09-09T06:33:06;19.46;90.70
72114;SHT31;59989;46.220;19.888;2022-09-09T06:36:13;19.49;90.38
72114;SHT31;59989;46.220;19.888;2022-09-09T06:39:17;19.51;90.12
72114;SHT31;59989;46.220;19.888;2022-09-09T06:42:20;19.49;89.99
72114;SHT31;59989;46.220;19.888;2022-09-09T06:45:57;19.61;90.75
72114;SHT31;59989;46.220;19.888;2022-09-09T06:49:00;19.56;90.19
72114;SHT31;59989;46.220;19.888;2022-09-09T06:52:03;19.66;90.16
72114;SHT31;59989;46.220;19.888;2022-09-09T06:55:06;19.69;89.90
72114;SHT31;59989;46.220;19.888;2022-09-09T06:58:09;19.73;88.89
72114;SHT31;59989;46.220;19.888;2022-09-09T07:01:14;19.95;90.05
72114;SHT31;59989;46.220;19.888;2022-09-09T07:04:17;19.97;88.01
72114;SHT31;59989;46.220;19.888;2022-09-09T07:07:19;20.35;88.01
72114;SHT31;59989;46.220;19.888;2022-09-09T07:10:22;20.22;86.50
72114;SHT31;59989;46.220;19.888;2022-09-09T07:13:26;20.07;87.18
72114;SHT31;59989;46.220;19.888;2022-09-09T07:16:30;19.90;87.51
72114;SHT31;59989;46.220;19.888;2022-09-09T07:19:37;19.81;87.98
72114;SHT31;59989;46.220;19.888;2022-09-09T07:22:41;19.56;88.23
72114;SHT31;59989;46.220;19.888;2022-09-09T07:25:45;19.43;88.77
72114;SHT31;59989;46.220;19.888;2022-09-09T07:28:50;19.51;89.72
72114;SHT31;59989;46.220;19.888;2022-09-09T07:31:54;19.50;88.81
72114;SHT31;59989;46.220;19.888;2022-09-09T07:35:02;19.70;88.90
72114;SHT31;59989;46.220;19.888;2022-09-09T07:38:05;19.90;88.33
72114;SHT31;59989;46.220;19.888;2022-09-09T07:41:11;20.04;87.23
72114;SHT31;59989;46.220;19.888;2022-09-09T07:44:17;20.32;87.77
72114;SHT31;59989;46.220;19.888;2022-09-09T07:47:23;20.62;87.20
72114;SHT31;59989;46.220;19.888;2022-09-09T07:50:27;20.93;85.94
72114;SHT31;59989;46.220;19.888;2022-09-09T07:53:29;21.08;84.31
72114;SHT31;59989;46.220;19.888;2022-09-09T07:56:33;21.23;84.21
72114;SHT31;59989;46.220;19.888;2022-09-09T07:59:37;21.51;84.88
72114;SHT31;59989;46.220;19.888;2022-09-09T08:02:40;21.72;83.55
72114;SHT31;59989;46.220;19.888;2022-09-09T08:05:44;21.97;82.23
72114;SHT31;59989;46.220;19.888;2022-09-09T08:08:50;22.23;80.94
72114;SHT31;59989;46.220;19.888;2022-09-09T08:11:53;22.54;80.58
72114;SHT31;59989;46.220;19.888;2022-09-09T08:14:55;22.23;78.71
72114;SHT31;59989;46.220;19.888;2022-09-09T08:18:02;22.34;78.70
72114;SHT31;59989;46.220;19.888;2022-09-09T08:21:15;22.23;79.01
72114;SHT31;59989;46.220;19.888;2022-09-09T08:24:20;22.30;79.00
72114;SHT31;59989;46.220;19.888;2022-09-09T08:27:24;22.24;80.04
72114;SHT31;59989;46.220;19.888;2022-09-09T08:30:29;22.30;79.01
72114;SHT31;59989;46.220;19.888;2022-09-09T08:33:32;22.37;79.48
72114;SHT31;59989;46.220;19.888;2022-09-09T08:36:43;22.41;78.62
72114;SHT31;59989;46.220;19.888;2022-09-09T08:39:47;22.45;78.56
72114;SHT31;59989;46.220;19.888;2022-09-09T08:42:58;22.51;79.82
72114;SHT31;59989;46.220;19.888;2022-09-09T08:46:16;22.40;78.40
72114;SHT31;59989;46.220;19.888;2022-09-09T08:56:13;22.50;79.18
72114;SHT31;59989;46.220;19.888;2022-09-09T08:59:20;22.71;78.34
72114;SHT31;59989;46.220;19.888;2022-09-09T09:06:06;22.82;75.75
72114;SHT31;59989;46.220;19.888;2022-09-09T09:12:27;22.99;73.94
72114;SHT31;59989;46.220;19.888;2022-09-09T09:15:36;23.16;73.56
72114;SHT31;59989;46.220;19.888;2022-09-09T09:18:41;23.22;74.35
72114;SHT31;59989;46.220;19.888;2022-09-09T09:21:50;23.33;72.71
72114;SHT31;59989;46.220;19.888;2022-09-09T09:24:55;23.40;75.11
72114;SHT31;59989;46.220;19.888;2022-09-09T09:31:52;23.33;72.37
72114;SHT31;59989;46.220;19.888;2022-09-09T09:34:58;23.64;71.84
72114;SHT31;59989;46.220;19.888;2022-09-09T09:38:26;24.12;73.66
72114;SHT31;59989;46.220;19.888;2022-09-09T09:41:51;24.29;70.69
72114;SHT31;59989;46.220;19.888;2022-09-09T09:44:55;24.18;71.86
72114;SHT31;59989;46.220;19.888;2022-09-09T09:47:59;24.29;69.82
72114;SHT31;59989;46.220;19.888;2022-09-09T09:51:13;24.52;68.08
72114;SHT31;59989;46.220;19.888;2022-09-09T09:54:30;25.46;64.99
72114;SHT31;59989;46.220;19.888;2022-09-09T09:57:36;25.22;67.27
72114;SHT31;59989;46.220;19.888;2022-09-09T10:00:51;25.14;64.69
72114;SHT31;59989;46.220;19.888;2022-09-09T10:04:18;24.35;64.42
72114;SHT31;59989;46.220;19.888;2022-09-09T10:07:28;24.25;64.85
72114;SHT31;59989;46.220;19.888;2022-09-09T10:11:01;24.43;67.08
72114;SHT31;59989;46.220;19.888;2022-09-09T10:14:21;24.52;67.80
72114;SHT31;59989;46.220;19.888;2022-09-09T10:21:07;24.87;66.60
72114;SHT31;59989;46.220;19.888;2022-09-09T10:28:13;24.60;67.30
72114;SHT31;59989;46.220;19.888;2022-09-09T10:31:54;25.04;66.78
72114;SHT31;59989;46.220;19.888;2022-09-09T10:38:18;25.69;64.97
72114;SHT31;59989;46.220;19.888;2022-09-09T10:45:20;25.96;64.50
72114;SHT31;59989;46.220;19.888;2022-09-09T10:48:31;26.01;64.36
72114;SHT31;59989;46.220;19.888;2022-09-09T10:51:49;25.75;61.86
72114;SHT31;59989;46.220;19.888;2022-09-09T10:54:57;26.43;61.88
72114;SHT31;59989;46.220;19.888;2022-09-09T10:58:03;25.96;62.64
72114;SHT31;59989;46.220;19.888;2022-09-09T11:01:19;25.42;65.97
72114;SHT31;59989;46.220;19.888;2022-09-09T11:04:31;26.21;62.35
72114;SHT31;59989;46.220;19.888;2022-09-09T11:07:54;27.17;57.56
72114;SHT31;59989;46.220;19.888;2022-09-09T11:14:52;28.02;55.63
72114;SHT31;59989;46.220;19.888;2022-09-09T11:17:58;29.11;54.76
72114;SHT31;59989;46.220;19.888;2022-09-09T11:21:08;30.30;50.87
72114;SHT31;59989;46.220;19.888;2022-09-09T11:27:37;30.02;47.60
72114;SHT31;59989;46.220;19.888;2022-09-09T11:34:23;30.81;47.75
72114;SHT31;59989;46.220;19.888;2022-09-09T11:41:03;31.22;45.28
72114;SHT31;59989;46.220;19.888;2022-09-09T11:44:11;32.72;40.23
72114;SHT31;59989;46.220;19.888;2022-09-09T11:47:30;32.19;39.84
72114;SHT31;59989;46.220;19.888;2022-09-09T11:50:37;32.70;42.29
72114;SHT31;59989;46.220;19.888;2022-09-09T11:57:34;31.82;41.78
72114;SHT31;59989;46.220;19.888;2022-09-09T12:00:48;34.06;38.79
72114;SHT31;59989;46.220;19.888;2022-09-09T12:03:52;33.80;38.07
72114;SHT31;59989;46.220;19.888;2022-09-09T12:07:38;34.09;38.73
72114;SHT31;59989;46.220;19.888;2022-09-09T12:10:53;31.91;42.46
72114;SHT31;59989;46.220;19.888;2022-09-09T12:13:58;31.81;44.04
72114;SHT31;59989;46.220;19.888;2022-09-09T12:17:22;32.35;38.06
72114;SHT31;59989;46.220;19.888;2022-09-09T12:20:32;33.90;37.06
72114;SHT31;59989;46.220;19.888;2022-09-09T12:23:56;34.63;35.78
72114;SHT31;59989;46.220;19.888;2022-09-09T12:34:40;34.32;35.96
72114;SHT31;59989;46.220;19.888;2022-09-09T12:38:00;34.02;36.91
72114;SHT31;59989;46.220;19.888;2022-09-09T12:41:04;32.97;38.44
72114;SHT31;59989;46.220;19.888;2022-09-09T12:44:09;33.61;38.02
72114;SHT31;59989;46.220;19.888;2022-09-09T12:47:13;34.34;35.71
72114;SHT31;59989;46.220;19.888;2022-09-09T12:50:27;35.01;31.95
72114;SHT31;59989;46.220;19.888;2022-09-09T12:53:36;33.73;34.99
72114;SHT31;59989;46.220;19.888;2022-09-09T12:56:46;34.50;34.06
72114;SHT31;59989;46.220;19.888;2022-09-09T12:59:49;33.99;34.62
72114;SHT31;59989;46.220;19.888;2022-09-09T13:02:56;35.91;31.85
72114;SHT31;59989;46.220;19.888;2022-09-09T13:06:12;34.99;32.85
72114;SHT31;59989;46.220;19.888;2022-09-09T13:09:15;36.79;29.79
72114;SHT31;59989;46.220;19.888;2022-09-09T13:12:23;38.08;27.26
72114;SHT31;59989;46.220;19.888;2022-09-09T13:15:27;37.27;25.02
72114;SHT31;59989;46.220;19.888;2022-09-09T13:18:34;37.33;25.80
72114;SHT31;59989;46.220;19.888;2022-09-09T13:21:38;37.04;26.78
72114;SHT31;59989;46.220;19.888;2022-09-09T13:24:40;35.13;29.32
72114;SHT31;59989;46.220;19.888;2022-09-09T13:27:53;34.67;29.58
72114;SHT31;59989;46.220;19.888;2022-09-09T13:31:04;36.65;28.34
72114;SHT31;59989;46.220;19.888;2022-09-09T13:34:29;36.78;29.63
72114;SHT31;59989;46.220;19.888;2022-09-09T13:37:35;38.70;26.64
72114;SHT31;59989;46.220;19.888;2022-09-09T13:40:38;38.15;27.61
72114;SHT31;59989;46.220;19.888;2022-09-09T13:43:45;37.60;28.80
72114;SHT31;59989;46.220;19.888;2022-09-09T13:47:04;35.22;27.65
72114;SHT31;59989;46.220;19.888;2022-09-09T13:50:28;32.31;31.91
72114;SHT31;59989;46.220;19.888;2022-09-09T13:53:31;31.96;34.75
72114;SHT31;59989;46.220;19.888;2022-09-09T13:56:33;31.09;38.83
72114;SHT31;59989;46.220;19.888;2022-09-09T13:59:37;31.91;37.20
72114;SHT31;59989;46.220;19.888;2022-09-09T14:03:00;30.65;40.53
72114;SHT31;59989;46.220;19.888;2022-09-09T14:06:04;29.86;43.61
72114;SHT31;59989;46.220;19.888;2022-09-09T14:09:15;30.89;40.52
72114;SHT31;59989;46.220;19.888;2022-09-09T14:12:17;30.28;42.01
72114;SHT31;59989;46.220;19.888;2022-09-09T14:15:20;31.13;40.98
72114;SHT31;59989;46.220;19.888;2022-09-09T14:18:24;32.97;36.06
72114;SHT31;59989;46.220;19.888;2022-09-09T14:21:28;32.72;34.59
72114;SHT31;59989;46.220;19.888;2022-09-09T14:24:30;34.65;32.34
72114;SHT31;59989;46.220;19.888;2022-09-09T14:27:33;34.72;31.41
72114;SHT31;59989;46.220;19.888;2022-09-09T14:30:37;32.37;36.52
72114;SHT31;59989;46.220;19.888;2022-09-09T14:33:40;30.62;37.47
72114;SHT31;59989;46.220;19.888;2022-09-09T14:36:42;30.34;37.86
72114;SHT31;59989;46.220;19.888;2022-09-09T14:39:46;29.87;38.45
72114;SHT31;59989;46.220;19.888;2022-09-09T14:42:49;29.35;36.58
72114;SHT31;59989;46.220;19.888;2022-09-09T14:45:52;28.52;40.52
72114;SHT31;59989;46.220;19.888;2022-09-09T14:48:55;28.61;42.88
72114;SHT31;59989;46.220;19.888;2022-09-09T14:52:01;28.33;44.94
72114;SHT31;59989;46.220;19.888;2022-09-09T14:55:04;28.25;45.06
72114;SHT31;59989;46.220;19.888;2022-09-09T14:58:07;28.39;45.65
72114;SHT31;59989;46.220;19.888;2022-09-09T15:01:15;30.09;40.95
72114;SHT31;59989;46.220;19.888;2022-09-09T15:04:18;32.02;35.93
72114;SHT31;59989;46.220;19.888;2022-09-09T15:07:20;33.73;34.70
72114;SHT31;59989;46.220;19.888;2022-09-09T15:10:25;33.70;32.04
72114;SHT31;59989;46.220;19.888;2022-09-09T15:13:28;35.46;29.39
72114;SHT31;59989;46.220;19.888;2022-09-09T15:16:31;36.12;28.15
72114;SHT31;59989;46.220;19.888;2022-09-09T15:19:34;35.45;28.23
72114;SHT31;59989;46.220;19.888;2022-09-09T15:22:37;31.95;34.92
72114;SHT31;59989;46.220;19.888;2022-09-09T15:25:55;30.12;37.50
72114;SHT31;59989;46.220;19.888;2022-09-09T15:28:58;29.11;40.71
72114;SHT31;59989;46.220;19.888;2022-09-09T15:32:04;28.25;39.64
72114;SHT31;59989;46.220;19.888;2022-09-09T15:35:06;28.11;40.81
72114;SHT31;59989;46.220;19.888;2022-09-09T15:38:09;27.87;41.73
72114;SHT31;59989;46.220;19.888;2022-09-09T15:41:13;26.89;43.23
72114;SHT31;59989;46.220;19.888;2022-09-09T15:44:15;26.51;43.44
72114;SHT31;59989;46.220;19.888;2022-09-09T15:47:18;26.10;42.28
72114;SHT31;59989;46.220;19.888;2022-09-09T15:50:20;25.80;45.18
72114;SHT31;59989;46.220;19.888;2022-09-09T15:53:24;25.66;44.66
72114;SHT31;59989;46.220;19.888;2022-09-09T15:56:28;25.55;44.11
72114;SHT31;59989;46.220;19.888;2022-09-09T15:59:32;25.45;46.00
72114;SHT31;59989;46.220;19.888;2022-09-09T16:02:36;25.28;46.82
72114;SHT31;59989;46.220;19.888;2022-09-09T16:05:39;25.17;49.39
72114;SHT31;59989;46.220;19.888;2022-09-09T16:08:44;25.10;49.94
72114;SHT31;59989;46.220;19.888;2022-09-09T16:11:48;25.15;51.62
72114;SHT31;59989;46.220;19.888;2022-09-09T16:14:50;24.98;52.60
72114;SHT31;59989;46.220;19.888;2022-09-09T16:17:53;24.84;51.77
72114;SHT31;59989;46.220;19.888;2022-09-09T16:20:56;24.67;50.96
72114;SHT31;59989;46.220;19.888;2022-09-09T16:24:00;24.55;51.98
72114;SHT31;59989;46.220;19.888;2022-09-09T16:27:03;24.42;53.41
72114;SHT31;59989;46.220;19.888;2022-09-09T16:30:06;24.18;54.11
72114;SHT31;59989;46.220;19.888;2022-09-09T16:33:09;24.14;54.57
72114;SHT31;59989;46.220;19.888;2022-09-09T16:36:14;24.14;54.31
72114;SHT31;59989;46.220;19.888;2022-09-09T16:39:19;24.18;54.44
72114;SHT31;59989;46.220;19.888;2022-09-09T16:42:22;24.08;59.24
72114;SHT31;59989;46.220;19.888;2022-09-09T16:45:25;24.00;56.81
72114;SHT31;59989;46.220;19.888;2022-09-09T16:48:34;23.97;54.06
72114;SHT31;59989;46.220;19.888;2022-09-09T16:51:38;23.91;55.30
72114;SHT31;59989;46.220;19.888;2022-09-09T16:54:41;23.77;56.79
72114;SHT31;59989;46.220;19.888;2022-09-09T16:57:43;23.60;56.99
72114;SHT31;59989;46.220;19.888;2022-09-09T17:00:46;23.47;57.04
72114;SHT31;59989;46.220;19.888;2022-09-09T17:03:56;23.30;58.21
72114;SHT31;59989;46.220;19.888;2022-09-09T17:07:02;23.12;60.95
72114;SHT31;59989;46.220;19.888;2022-09-09T17:10:05;22.91;60.86
72114;SHT31;59989;46.220;19.888;2022-09-09T17:13:08;22.76;60.73
72114;SHT31;59989;46.220;19.888;2022-09-09T17:16:13;22.64;61.10
72114;SHT31;59989;46.220;19.888;2022-09-09T17:19:17;22.58;62.18
72114;SHT31;59989;46.220;19.888;2022-09-09T17:22:19;22.52;63.22
72114;SHT31;59989;46.220;19.888;2022-09-09T17:25:22;22.52;62.38
72114;SHT31;59989;46.220;19.888;2022-09-09T17:28:25;22.44;64.71
72114;SHT31;59989;46.220;19.888;2022-09-09T17:31:33;22.31;63.46
72114;SHT31;59989;46.220;19.888;2022-09-09T17:34:36;22.21;64.09
72114;SHT31;59989;46.220;19.888;2022-09-09T17:37:39;22.18;63.37
72114;SHT31;59989;46.220;19.888;2022-09-09T17:40:42;22.09;64.46
72114;SHT31;59989;46.220;19.888;2022-09-09T17:43:45;21.99;65.99
72114;SHT31;59989;46.220;19.888;2022-09-09T17:46:48;21.85;67.64
72114;SHT31;59989;46.220;19.888;2022-09-09T17:49:51;21.76;68.36
72114;SHT31;59989;46.220;19.888;2022-09-09T17:52:53;21.72;68.35
72114;SHT31;59989;46.220;19.888;2022-09-09T17:56:07;21.63;68.55
72114;SHT31;59989;46.220;19.888;2022-09-09T17:59:11;21.49;69.93
72114;SHT31;59989;46.220;19.888;2022-09-09T18:02:14;21.39;70.41
72114;SHT31;59989;46.220;19.888;2022-09-09T18:05:17;21.27;71.38
72114;SHT31;59989;46.220;19.888;2022-09-09T18:08:20;21.25;71.84
72114;SHT31;59989;46.220;19.888;2022-09-09T18:11:24;21.30;71.64
72114;SHT31;59989;46.220;19.888;2022-09-09T18:14:29;21.37;72.74
72114;SHT31;59989;46.220;19.888;2022-09-09T18:17:32;21.39;71.55
72114;SHT31;59989;46.220;19.888;2022-09-09T18:20:35;21.45;70.72
72114;SHT31;59989;46.220;19.888;2022-09-09T18:23:39;21.42;70.84
72114;SHT31;59989;46.220;19.888;2022-09-09T18:26:43;21.31;72.99
72114;SHT31;59989;46.220;19.888;2022-09-09T18:29:46;21.28;71.80
72114;SHT31;59989;46.220;19.888;2022-09-09T18:32:49;21.23;72.00
72114;SHT31;59989;46.220;19.888;2022-09-09T18:35:54;21.14;72.30
72114;SHT31;59989;46.220;19.888;2022-09-09T18:38:59;21.11;73.31
72114;SHT31;59989;46.220;19.888;2022-09-09T18:42:01;21.01;73.70
72114;SHT31;59989;46.220;19.888;2022-09-09T18:45:04;21.08;74.11
72114;SHT31;59989;46.220;19.888;2022-09-09T18:48:07;21.10;76.26
72114;SHT31;59989;46.220;19.888;2022-09-09T18:51:09;21.08;75.50
72114;SHT31;59989;46.220;19.888;2022-09-09T18:54:17;21.10;74.90
72114;SHT31;59989;46.220;19.888;2022-09-09T18:57:20;21.12;74.25
72114;SHT31;59989;46.220;19.888;2022-09-09T19:00:23;21.21;72.97
72114;SHT31;59989;46.220;19.888;2022-09-09T19:03:27;21.18;75.41
72114;SHT31;59989;46.220;19.888;2022-09-09T19:06:32;21.21;74.30
72114;SHT31;59989;46.220;19.888;2022-09-09T19:09:34;21.20;74.22
72114;SHT31;59989;46.220;19.888;2022-09-09T19:12:37;21.27;73.78
72114;SHT31;59989;46.220;19.888;2022-09-09T19:15:42;21.30;74.83
72114;SHT31;59989;46.220;19.888;2022-09-09T19:18:45;21.30;74.42
72114;SHT31;59989;46.220;19.888;2022-09-09T19:21:49;21.27;74.71
72114;SHT31;59989;46.220;19.888;2022-09-09T19:24:58;21.24;74.92
72114;SHT31;59989;46.220;19.888;2022-09-09T19:28:01;21.25;75.62
72114;SHT31;59989;46.220;19.888;2022-09-09T19:31:06;21.28;75.15
72114;SHT31;59989;46.220;19.888;2022-09-09T19:34:09;21.32;75.90
72114;SHT31;59989;46.220;19.888;2022-09-09T19:37:12;21.27;75.75
72114;SHT31;59989;46.220;19.888;2022-09-09T19:40:20;21.14;76.34
72114;SHT31;59989;46.220;19.888;2022-09-09T19:43:24;21.14;75.99
72114;SHT31;59989;46.220;19.888;2022-09-09T19:46:28;21.11;76.18
72114;SHT31;59989;46.220;19.888;2022-09-09T19:49:31;21.01;76.01
72114;SHT31;59989;46.220;19.888;2022-09-09T19:52:34;20.83;79.36
72114;SHT31;59989;46.220;19.888;2022-09-09T19:55:39;20.49;85.16
72114;SHT31;59989;46.220;19.888;2022-09-09T19:58:45;20.24;86.38
72114;SHT31;59989;46.220;19.888;2022-09-09T20:01:48;20.00;86.91
72114;SHT31;59989;46.220;19.888;2022-09-09T20:04:50;19.88;88.30
72114;SHT31;59989;46.220;19.888;2022-09-09T20:07:53;19.63;90.28
72114;SHT31;59989;46.220;19.888;2022-09-09T20:10:55;19.60;90.31
72114;SHT31;59989;46.220;19.888;2022-09-09T20:13:58;19.51;91.44
72114;SHT31;59989;46.220;19.888;2022-09-09T20:17:00;19.54;91.67
72114;SHT31;59989;46.220;19.888;2022-09-09T20:20:03;19.54;91.63
72114;SHT31;59989;46.220;19.888;2022-09-09T20:23:05;19.49;91.74
72114;SHT31;59989;46.220;19.888;2022-09-09T20:26:12;19.40;91.82
72114;SHT31;59989;46.220;19.888;2022-09-09T20:29:18;19.33;92.20
72114;SHT31;59989;46.220;19.888;2022-09-09T20:32:20;19.29;92.57
72114;SHT31;59989;46.220;19.888;2022-09-09T20:35:23;19.27;92.41
72114;SHT31;59989;46.220;19.888;2022-09-09T20:38:25;19.20;91.80
72114;SHT31;59989;46.220;19.888;2022-09-09T20:41:30;19.18;91.41
72114;SHT31;59989;46.220;19.888;2022-09-09T20:44:33;19.09;91.42
72114;SHT31;59989;46.220;19.888;2022-09-09T20:47:35;19.09;91.70